RJEO(METAR)
04/24 09:00
RJEO 240000Z 15006KT 9999 FEW020 13/09 Q1013 RMK A2992=
戻る
トップページへ戻る
IMOC Co,.Ltd.